Terminal Aerodrome Forecast
Issued by NWS

Home | Current Version | Previous Version | Text Only | Print | Product List | Glossary On
Versions: 1 2 3 4 5 6 7 8 9 10 11 12 13 14 15
000
FTUS42 KGSP 280541
TAFAND
TAF
KAND 280541Z 2806/2906 06005KT P6SM FEW060
     FM281900 07009KT P6SM FEW250
     FM282100 07009KT P6SM FEW040
     FM290300 05005KT P6SM FEW045=

USA.gov is the U.S. government's official web portal to all federal, state and local government web resources and services.